Time;durP1;ratioP1;P1;durP2;ratioP2;P2;SDS_P1;SDS_P2;PMS_P1;PMS_P2;Temp;Humidity;BMP_temperature;BMP_pressure;BME280_temperature;BME280_humidity;BME280_pressure;Samples;Min_cycle;Max_cycle;Signal;HPM_P1;HPM_P2
2022/11/10 09:37:41;;;;;;;5.30;4.80;;;;;;;;;;4893644;29;19999;-86
2022/11/10 09:40:16;;;;;;;6.97;4.90;;;;;;;;;;4899757;29;20081;-87
2022/11/10 09:42:43;;;;;;;5.55;4.80;;;;;;;;;;4883152;29;20041;-82
2022/11/10 09:45:26;;;;;;;5.80;5.20;;;;;;;;;;4916363;29;20028;-79
2022/11/10 09:48:01;;;;;;;5.82;4.93;;;;;;;;;;4917583;29;20032;-81
2022/11/10 09:50:40;;;;;;;5.55;5.00;;;;;;;;;;4918625;29;20028;-86
2022/11/10 09:53:14;;;;;;;5.15;4.65;;;;;;;;;;4918313;29;20051;-87
2022/11/10 09:55:51;;;;;;;5.18;4.60;;;;;;;;;;4918871;29;20028;-88
2022/11/10 09:58:17;;;;;;;5.35;3.95;;;;;;;;;;4917227;29;20032;-87
2022/11/10 10:00:51;;;;;;;6.15;4.75;;;;;;;;;;4901370;29;20035;-90
2022/11/10 10:03:23;;;;;;;4.60;4.20;;;;;;;;;;4917150;29;20071;-87
2022/11/10 10:06:01;;;;;;;4.78;4.30;;;;;;;;;;4917093;29;20020;-85
2022/11/10 10:08:45;;;;;;;4.55;3.92;;;;;;;;;;4917556;29;20028;-87
2022/11/10 10:11:24;;;;;;;4.40;4.00;;;;;;;;;;4917036;29;20028;-88
2022/11/10 10:14:14;;;;;;;5.43;4.40;;;;;;;;;;4917934;29;20456;-87
2022/11/10 10:17:25;;;;;;;5.70;4.22;;;;;;;;;;4916740;29;20059;-87
2022/11/10 10:19:56;;;;;;;4.90;4.40;;;;;;;;;;4877580;29;20066;-87
2022/11/10 10:22:44;;;;;;;5.47;4.65;;;;;;;;;;4901050;29;20496;-87
2022/11/10 10:25:21;;;;;;;5.03;4.38;;;;;;;;;;4917965;29;20040;-89
2022/11/10 10:27:56;;;;;;;4.90;4.43;;;;;;;;;;4916826;29;20028;-88
2022/11/10 10:30:22;;;;;;;4.75;4.32;;;;;;;;;;4916823;29;20051;-87
2022/11/10 10:32:53;;;;;;;5.50;4.53;;;;;;;;;;4917749;29;20412;-83
2022/11/10 10:35:19;;;;;;;4.47;4.07;;;;;;;;;;4918229;29;20136;-91
2022/11/10 10:37:49;;;;;;;4.93;4.53;;;;;;;;;;4919014;29;20080;-87
2022/11/10 10:40:17;;;;;;;5.35;4.30;;;;;;;;;;4917791;29;20028;-93
2022/11/10 10:42:43;;;;;;;4.47;4.07;;;;;;;;;;4917901;29;20062;-88
2022/11/10 10:45:27;;;;;;;4.93;4.10;;;;;;;;;;4917931;29;20060;-92
2022/11/10 10:47:55;;;;;;;4.68;3.67;;;;;;;;;;4918131;29;20034;-86
2022/11/10 10:50:33;;;;;;;4.07;3.75;;;;;;;;;;4917584;29;20024;-87
2022/11/10 10:53:06;;;;;;;5.40;4.15;;;;;;;;;;4917563;29;20472;-86
2022/11/10 10:55:33;;;;;;;4.85;4.30;;;;;;;;;;4917355;29;20028;-84
2022/11/10 10:58:01;;;;;;;4.90;4.40;;;;;;;;;;4917336;29;20081;-84
2022/11/10 11:00:28;;;;;;;4.75;4.30;;;;;;;;;;4917594;29;20024;-87
2022/11/10 11:03:06;;;;;;;4.20;3.78;;;;;;;;;;4917751;29;20052;-88
2022/11/10 11:05:31;;;;;;;6.22;4.07;;;;;;;;;;4917558;29;20064;-87
2022/11/10 11:07:59;;;;;;;4.70;4.30;;;;;;;;;;4917171;29;20024;-85
2022/11/10 11:10:28;;;;;;;5.47;4.20;;;;;;;;;;4917561;29;20083;-86
2022/11/10 11:12:53;;;;;;;5.00;4.10;;;;;;;;;;4917287;29;20029;-84
2022/11/10 11:15:28;;;;;;;4.70;4.20;;;;;;;;;;4917198;29;20032;-85
2022/11/10 11:18:13;;;;;;;4.68;4.28;;;;;;;;;;4915804;29;20028;-82
2022/11/10 11:21:16;;;;;;;4.30;3.92;;;;;;;;;;4917146;29;20031;-81
2022/11/10 11:23:50;;;;;;;5.28;4.18;;;;;;;;;;4917164;29;20346;-84
2022/11/10 11:26:23;;;;;;;4.80;4.30;;;;;;;;;;4917063;29;20083;-82
2022/11/10 11:29:16;;;;;;;6.18;4.32;;;;;;;;;;4917139;29;20387;-81
2022/11/10 11:31:57;;;;;;;4.40;3.92;;;;;;;;;;4917211;29;20028;-83
2022/11/10 11:34:41;;;;;;;4.25;3.72;;;;;;;;;;4917102;29;20024;-82
2022/11/10 11:37:22;;;;;;;5.53;4.25;;;;;;;;;;4898808;29;20028;-82
2022/11/10 11:40:09;;;;;;;5.07;4.05;;;;;;;;;;4898238;29;20032;-80
2022/11/10 11:42:44;;;;;;;4.55;4.07;;;;;;;;;;4898288;29;20031;-79
2022/11/10 11:45:27;;;;;;;4.60;4.10;;;;;;;;;;4898162;29;20040;-79
2022/11/10 11:48:40;;;;;;;6.15;4.15;;;;;;;;;;4897972;29;20480;-79
2022/11/10 11:51:20;;;;;;;4.47;4.07;;;;;;;;;;4898000;29;20557;-80
2022/11/10 11:54:01;;;;;;;4.60;4.20;;;;;;;;;;4898045;29;20039;-79
2022/11/10 11:56:34;;;;;;;4.78;4.38;;;;;;;;;;4898119;29;20437;-81
2022/11/10 11:59:24;;;;;;;4.10;3.70;;;;;;;;;;4912648;29;20029;-79
2022/11/10 12:02:19;;;;;;;4.47;3.63;;;;;;;;;;4898193;29;20029;-83
2022/11/10 12:05:14;;;;;;;4.57;3.95;;;;;;;;;;4901501;29;20033;-81
2022/11/10 12:08:06;;;;;;;4.03;3.63;;;;;;;;;;4891049;29;20105;-82
2022/11/10 12:10:53;;;;;;;4.28;3.88;;;;;;;;;;4901618;29;20556;-81
2022/11/10 12:13:27;;;;;;;3.22;3.00;;;;;;;;;;4899947;29;20039;-82
2022/11/10 12:16:00;;;;;;;5.03;3.75;;;;;;;;;;4900956;29;20028;-81
2022/11/10 12:18:36;;;;;;;4.25;3.17;;;;;;;;;;4901172;29;20025;-81
2022/11/10 12:21:26;;;;;;;3.75;3.35;;;;;;;;;;4901035;29;20029;-81
2022/11/10 12:24:29;;;;;;;3.65;3.35;;;;;;;;;;4901072;29;20040;-81
2022/11/10 12:26:59;;;;;;;5.15;3.08;;;;;;;;;;4901335;29;20029;-81
2022/11/10 12:29:44;;;;;;;3.63;2.90;;;;;;;;;;4915320;29;20035;-81
2022/11/10 12:32:10;;;;;;;5.05;3.30;;;;;;;;;;4901182;29;20031;-81
2022/11/10 12:34:41;;;;;;;4.30;3.00;;;;;;;;;;4901084;29;20033;-93
2022/11/10 12:37:34;;;;;;;3.95;2.90;;;;;;;;;;4915464;29;20032;-87
2022/11/10 12:40:20;;;;;;;3.17;2.88;;;;;;;;;;4890713;29;20460;-84
2022/11/10 12:42:53;;;;;;;3.30;3.00;;;;;;;;;;4900824;29;20065;-81
2022/11/10 12:45:31;;;;;;;3.78;3.38;;;;;;;;;;4900911;29;20033;-82
2022/11/10 12:47:58;;;;;;;4.65;4.25;;;;;;;;;;4901112;29;20040;-85
2022/11/10 18:11:47;;;;;;;5.15;4.47;;;;;;;;;;4990094;28;20125;-84
2022/11/10 18:14:13;;;;;;;5.07;4.57;;;;;;;;;;4996947;28;20045;-81
2022/11/10 18:16:38;;;;;;;11.13;5.88;;;;;;;;;;5014411;28;20480;-81
2022/11/10 18:19:04;;;;;;;6.45;5.35;;;;;;;;;;4999319;28;20113;-82
2022/11/10 18:21:30;;;;;;;7.65;6.20;;;;;;;;;;4994962;28;20074;-81
2022/11/10 18:23:55;;;;;;;5.55;4.53;;;;;;;;;;4977434;28;20026;-82
2022/11/10 18:26:21;;;;;;;4.80;4.15;;;;;;;;;;4995111;28;20018;-80
2022/11/10 18:28:48;;;;;;;5.00;4.50;;;;;;;;;;4995460;28;20022;-84
2022/11/10 18:31:16;;;;;;;4.93;4.22;;;;;;;;;;4996581;28;20034;-83
2022/11/10 18:33:42;;;;;;;7.70;7.00;;;;;;;;;;4995603;28;20080;-83
2022/11/10 18:36:08;;;;;;;6.03;5.47;;;;;;;;;;4995180;28;20034;-85
2022/11/10 18:38:33;;;;;;;4.57;4.00;;;;;;;;;;4994746;28;20030;-87
2022/11/10 18:41:47;;;;;;;5.28;4.78;;;;;;;;;;4994869;28;20034;-85
2022/11/10 18:43:48;;;;;;;8.18;4.70;;;;;;;;;;4994199;28;20508;-83
2022/11/10 18:46:14;;;;;;;5.40;4.43;;;;;;;;;;4994964;28;20158;-84
2022/11/10 18:48:40;;;;;;;4.70;4.30;;;;;;;;;;4983759;28;20474;-84
2022/11/10 18:51:05;;;;;;;7.07;4.68;;;;;;;;;;4959181;28;20082;-83
2022/11/10 18:53:31;;;;;;;6.28;5.68;;;;;;;;;;4974847;28;20382;-81
2022/11/10 18:55:57;;;;;;;9.50;5.88;;;;;;;;;;4974804;28;20035;-83
2022/11/10 18:58:22;;;;;;;6.60;5.90;;;;;;;;;;4974964;28;20093;-81
2022/11/10 19:00:48;;;;;;;4.75;4.35;;;;;;;;;;4974852;28;20031;-82
2022/11/10 19:03:13;;;;;;;6.45;4.20;;;;;;;;;;4974977;28;20419;-81
2022/11/10 19:05:38;;;;;;;5.43;4.90;;;;;;;;;;4974787;28;20031;-82
2022/11/10 19:08:05;;;;;;;7.20;5.20;;;;;;;;;;4974638;28;20464;-82
2022/11/10 19:10:31;;;;;;;5.88;5.25;;;;;;;;;;4960049;28;20373;-84
2022/11/10 19:12:56;;;;;;;6.88;5.50;;;;;;;;;;4982771;28;20038;-84
2022/11/10 19:15:22;;;;;;;5.88;5.30;;;;;;;;;;4983327;28;20042;-87
2022/11/10 19:17:47;;;;;;;8.40;5.07;;;;;;;;;;4985192;28;20031;-83
2022/11/10 19:20:14;;;;;;;6.68;5.15;;;;;;;;;;4976679;28;20031;-82
2022/11/10 19:22:40;;;;;;;7.20;5.07;;;;;;;;;;4994154;28;20105;-79
2022/11/10 19:25:06;;;;;;;8.50;5.57;;;;;;;;;;4976813;28;20108;-81
2022/11/10 19:27:31;;;;;;;8.23;7.32;;;;;;;;;;4996980;28;20025;-81
2022/11/10 19:30:16;;;;;;;7.15;5.60;;;;;;;;;;4986447;28;20081;-81
2022/11/10 19:33:34;;;;;;;4.95;4.45;;;;;;;;;;4996115;28;20034;-80
2022/11/10 19:36:05;;;;;;;6.00;4.63;;;;;;;;;;4904367;28;20040;-78
2022/11/10 19:38:31;;;;;;;6.60;5.90;;;;;;;;;;4994528;28;20022;-80
2022/11/10 19:40:57;;;;;;;10.40;7.13;;;;;;;;;;4995333;28;20351;-84
2022/11/10 19:43:23;;;;;;;8.10;6.63;;;;;;;;;;4976349;28;20031;-81
2022/11/10 19:45:49;;;;;;;7.95;6.22;;;;;;;;;;4976324;28;20034;-82
2022/11/10 19:48:15;;;;;;;7.00;6.40;;;;;;;;;;4993829;28;20026;-82
2022/11/10 19:50:40;;;;;;;6.07;5.47;;;;;;;;;;4993868;28;20117;-82
2022/11/10 19:53:06;;;;;;;6.18;5.55;;;;;;;;;;4993905;28;20438;-90
2022/11/10 19:55:31;;;;;;;6.80;5.82;;;;;;;;;;4993886;28;20030;-82
2022/11/10 19:57:57;;;;;;;8.07;7.32;;;;;;;;;;4993995;28;20461;-81
2022/11/10 20:00:23;;;;;;;7.18;6.55;;;;;;;;;;4985675;28;20105;-83
2022/11/10 20:02:48;;;;;;;8.00;5.78;;;;;;;;;;4983334;28;20109;-81
2022/11/10 20:05:17;;;;;;;5.05;4.55;;;;;;;;;;4959349;28;20058;-82
2022/11/10 20:10:29;;;;;;;4.85;4.43;;;;;;;;;;4974418;28;20029;-81
2022/11/10 20:12:55;;;;;;;6.57;4.60;;;;;;;;;;4974084;28;20446;-81
2022/11/10 20:15:20;;;;;;;4.53;4.10;;;;;;;;;;4957077;28;20030;-83
2022/11/10 20:17:46;;;;;;;5.05;4.53;;;;;;;;;;4956738;28;20031;-81
2022/11/10 20:20:11;;;;;;;4.82;4.43;;;;;;;;;;4974369;28;20106;-82
2022/11/10 20:22:37;;;;;;;5.22;4.55;;;;;;;;;;4974176;28;20105;-81
2022/11/10 20:25:03;;;;;;;4.65;4.25;;;;;;;;;;4976993;28;20030;-82
2022/11/10 20:27:28;;;;;;;5.95;5.45;;;;;;;;;;4979634;28;20034;-81
2022/11/10 20:29:54;;;;;;;6.18;4.82;;;;;;;;;;4978567;28;20023;-81
2022/11/10 20:32:19;;;;;;;4.88;4.38;;;;;;;;;;4977700;28;20019;-81
2022/11/10 20:34:45;;;;;;;6.25;4.90;;;;;;;;;;4977505;28;20031;-82
2022/11/10 20:37:11;;;;;;;7.50;4.43;;;;;;;;;;4977913;28;20045;-81
2022/11/10 20:39:36;;;;;;;5.95;4.40;;;;;;;;;;4977590;28;20038;-81
2022/11/10 20:42:02;;;;;;;7.32;4.40;;;;;;;;;;4977243;28;20029;-80
2022/11/10 20:44:27;;;;;;;7.25;4.43;;;;;;;;;;4977128;28;20043;-81
2022/11/10 20:46:53;;;;;;;3.92;3.60;;;;;;;;;;4977365;28;20058;-81
2022/11/10 20:49:18;;;;;;;4.15;3.80;;;;;;;;;;4977139;28;20032;-81
2022/11/10 20:51:44;;;;;;;4.55;3.58;;;;;;;;;;4989080;28;20038;-81
2022/11/10 20:54:09;;;;;;;3.88;3.53;;;;;;;;;;4997166;28;20034;-88
2022/11/10 20:56:35;;;;;;;4.65;4.25;;;;;;;;;;4980338;28;20034;-88
2022/11/10 20:59:00;;;;;;;5.57;3.72;;;;;;;;;;4997252;28;20056;-89
2022/11/10 21:01:26;;;;;;;5.72;4.18;;;;;;;;;;4979780;28;20060;-89
2022/11/10 21:03:53;;;;;;;5.05;4.50;;;;;;;;;;4980262;28;20022;-90
2022/11/10 21:06:18;;;;;;;4.95;4.55;;;;;;;;;;4997205;28;20030;-81
2022/11/10 21:08:43;;;;;;;8.02;5.50;;;;;;;;;;4996664;28;20517;-82
2022/11/10 21:11:09;;;;;;;8.32;5.75;;;;;;;;;;4981590;28;20018;-81
2022/11/10 21:13:36;;;;;;;6.70;4.78;;;;;;;;;;4992192;28;20393;-89
2022/11/10 21:16:04;;;;;;;6.88;4.53;;;;;;;;;;4981715;28;20023;-83
2022/11/10 21:18:35;;;;;;;7.05;4.03;;;;;;;;;;4976474;28;20042;-81
2022/11/10 21:21:02;;;;;;;4.95;4.43;;;;;;;;;;4982853;28;20027;-80
2022/11/10 21:23:27;;;;;;;39.20;23.02;;;;;;;;;;4976667;28;20031;-80
2022/11/10 21:25:55;;;;;;;42.00;24.02;;;;;;;;;;4976290;28;20037;-82
2022/11/10 21:28:20;;;;;;;18.52;12.05;;;;;;;;;;4976423;28;20027;-84
2022/11/10 21:30:46;;;;;;;18.10;12.98;;;;;;;;;;4958678;28;20605;-81
2022/11/10 21:33:11;;;;;;;13.07;9.95;;;;;;;;;;4976642;28;20101;-81
2022/11/10 21:35:37;;;;;;;13.60;9.77;;;;;;;;;;4994480;28;20109;-84
2022/11/10 21:38:03;;;;;;;12.30;8.15;;;;;;;;;;4995933;28;20058;-82
2022/11/10 21:40:32;;;;;;;10.20;7.90;;;;;;;;;;4995833;28;20053;-82
2022/11/10 21:42:58;;;;;;;10.23;7.13;;;;;;;;;;4978136;28;20046;-82
2022/11/10 21:45:24;;;;;;;9.70;7.38;;;;;;;;;;4995601;28;20120;-82
2022/11/10 21:47:50;;;;;;;8.68;6.80;;;;;;;;;;4995314;28;20037;-81
2022/11/10 21:50:16;;;;;;;9.80;8.02;;;;;;;;;;4994511;28;20027;-82
2022/11/10 21:52:42;;;;;;;14.32;8.65;;;;;;;;;;4995401;28;20469;-81
2022/11/10 21:55:08;;;;;;;10.30;8.40;;;;;;;;;;4995525;28;20038;-81
2022/11/10 21:57:34;;;;;;;11.52;9.32;;;;;;;;;;4995295;28;20027;-81
2022/11/10 21:59:59;;;;;;;7.65;6.85;;;;;;;;;;4995132;28;20036;-82
2022/11/10 22:02:24;;;;;;;10.48;6.72;;;;;;;;;;4995370;28;20030;-80
2022/11/10 22:04:50;;;;;;;8.90;6.60;;;;;;;;;;4995399;28;20041;-81
2022/11/10 22:07:21;;;;;;;7.70;6.93;;;;;;;;;;4994851;28;20033;-81
2022/11/10 22:20:44;;;;;;;7.22;5.68;;;;;;;;;;4995385;28;20153;-81
2022/11/10 22:23:10;;;;;;;8.55;6.15;;;;;;;;;;4994933;28;20057;-81
